Time;durP1;ratioP1;P1;durP2;ratioP2;P2;SDS_P1;SDS_P2;PMS_P1;PMS_P2;Temp;Humidity;BMP_temperature;BMP_pressure;BME280_temperature;BME280_humidity;BME280_pressure;Samples;Min_cycle;Max_cycle;Signal;HPM_P1;HPM_P2
2022/05/25 00:01:29;;;;;;;52.05;29.90;;;;;;;;;;6292281;28;20045;-60
2022/05/25 00:04:30;;;;;;;50.30;29.92;;;;;;;;;;6294032;28;20473;-59
2022/05/25 00:07:31;;;;;;;47.85;29.85;;;;;;;;;;6289142;28;20048;-59
2022/05/25 00:10:31;;;;;;;43.28;28.60;;;;;;;;;;6290908;28;20582;-58
2022/05/25 00:13:33;;;;;;;49.38;29.58;;;;;;;;;;6294198;28;20151;-59
2022/05/25 00:16:33;;;;;;;47.95;30.80;;;;;;;;;;6291499;28;20052;-60
2022/05/25 00:22:55;;;;;;;44.85;29.02;;;;;;;;;;6291291;28;20072;-58
2022/05/25 00:25:56;;;;;;;48.70;30.83;;;;;;;;;;6291420;28;20179;-59
2022/05/25 00:28:57;;;;;;;51.13;33.03;;;;;;;;;;6289729;28;20146;-57
2022/05/25 00:31:59;;;;;;;53.28;32.92;;;;;;;;;;6288639;28;20068;-58
2022/05/25 00:34:59;;;;;;;54.60;32.28;;;;;;;;;;6292420;28;20521;-58
2022/05/25 00:38:00;;;;;;;50.25;31.27;;;;;;;;;;6288526;28;20044;-58
2022/05/25 00:41:01;;;;;;;61.10;35.72;;;;;;;;;;6291194;28;20079;-59
2022/05/25 00:44:03;;;;;;;60.03;36.35;;;;;;;;;;6291920;28;20122;-59
2022/05/25 00:47:04;;;;;;;61.05;35.83;;;;;;;;;;6290316;28;20420;-56
2022/05/25 00:50:08;;;;;;;55.80;33.63;;;;;;;;;;6292382;28;20747;-60
2022/05/25 00:53:08;;;;;;;51.40;31.85;;;;;;;;;;6290631;28;20056;-59
2022/05/25 00:56:12;;;;;;;47.67;29.67;;;;;;;;;;6290750;28;20037;-58
2022/05/25 00:59:16;;;;;;;45.40;29.63;;;;;;;;;;6291023;28;20067;-59
2022/05/25 01:02:16;;;;;;;46.50;29.52;;;;;;;;;;6288449;28;20415;-59
2022/05/25 01:05:46;;;;;;;45.13;28.85;;;;;;;;;;6292447;28;20136;-58
2022/05/25 01:09:05;;;;;;;44.28;28.52;;;;;;;;;;6271208;28;20079;-59
2022/05/25 01:12:28;;;;;;;46.95;29.17;;;;;;;;;;6288369;28;20048;-59
2022/05/25 01:15:32;;;;;;;43.15;27.00;;;;;;;;;;6291656;28;20491;-60
2022/05/25 01:18:57;;;;;;;45.40;29.08;;;;;;;;;;6287792;28;20082;-60
2022/05/25 01:22:21;;;;;;;44.03;28.35;;;;;;;;;;6289266;28;20131;-58
2022/05/25 01:25:39;;;;;;;48.05;29.42;;;;;;;;;;6288981;28;20541;-59
2022/05/25 01:29:09;;;;;;;51.80;31.33;;;;;;;;;;6290004;28;20090;-59
2022/05/25 01:32:18;;;;;;;48.20;29.65;;;;;;;;;;6289419;28;20048;-59
2022/05/25 01:35:30;;;;;;;45.95;28.67;;;;;;;;;;6292067;28;20106;-59
2022/05/25 01:38:36;;;;;;;49.47;30.45;;;;;;;;;;6289351;28;20047;-58
2022/05/25 01:42:00;;;;;;;46.75;28.83;;;;;;;;;;6287597;28;20094;-59
2022/05/25 01:45:06;;;;;;;49.45;29.92;;;;;;;;;;6291520;28;20083;-56
2022/05/25 01:48:09;;;;;;;50.28;30.83;;;;;;;;;;6287658;28;20522;-58
2022/05/25 01:51:14;;;;;;;55.47;32.42;;;;;;;;;;6289811;28;20176;-59
2022/05/25 01:54:19;;;;;;;55.25;31.80;;;;;;;;;;6287406;28;20071;-60
2022/05/25 01:57:23;;;;;;;54.38;31.60;;;;;;;;;;6288313;28;20083;-58
2022/05/25 02:00:36;;;;;;;53.33;31.38;;;;;;;;;;6286457;28;20079;-60
2022/05/25 02:07:10;;;;;;;54.28;32.72;;;;;;;;;;6288508;28;20074;-60
2022/05/25 02:10:49;;;;;;;51.10;30.15;;;;;;;;;;6291289;28;20053;-59
2022/05/25 02:14:16;;;;;;;51.20;31.02;;;;;;;;;;6288552;28;20072;-58
2022/05/25 02:17:33;;;;;;;87.28;29.30;;;;;;;;;;6286399;28;20518;-59
2022/05/25 02:20:56;;;;;;;113.07;29.50;;;;;;;;;;6287655;28;20527;-59
2022/05/25 02:24:11;;;;;;;70.47;33.17;;;;;;;;;;6286108;28;20055;-59
2022/05/25 02:27:19;;;;;;;55.13;31.30;;;;;;;;;;6288528;28;20094;-57
2022/05/25 02:30:23;;;;;;;55.50;31.35;;;;;;;;;;6289139;28;20051;-58
2022/05/25 02:33:30;;;;;;;52.58;31.13;;;;;;;;;;6284806;28;20049;-58
2022/05/25 02:36:37;;;;;;;50.63;30.50;;;;;;;;;;6290545;28;20399;-58
2022/05/25 02:39:37;;;;;;;55.00;32.60;;;;;;;;;;6286751;28;20071;-58
2022/05/25 02:42:40;;;;;;;105.43;32.42;;;;;;;;;;6288478;28;20044;-57
2022/05/25 02:45:42;;;;;;;91.55;35.45;;;;;;;;;;6290358;28;20522;-59
2022/05/25 02:48:42;;;;;;;127.57;40.95;;;;;;;;;;6288151;28;20082;-57
2022/05/25 02:51:43;;;;;;;70.55;37.92;;;;;;;;;;6289878;28;20045;-58
2022/05/25 02:54:44;;;;;;;66.35;37.08;;;;;;;;;;6286153;28;20067;-57
2022/05/25 02:57:45;;;;;;;70.88;38.78;;;;;;;;;;6287406;28;20067;-57
2022/05/25 03:00:45;;;;;;;71.20;39.00;;;;;;;;;;6288736;28;20056;-58
2022/05/25 03:03:46;;;;;;;70.63;38.88;;;;;;;;;;6293962;28;20060;-57
2022/05/25 03:06:47;;;;;;;76.20;41.20;;;;;;;;;;6285900;28;20146;-57
2022/05/25 03:09:47;;;;;;;67.53;38.97;;;;;;;;;;6285545;28;20048;-60
2022/05/25 03:12:48;;;;;;;72.85;43.00;;;;;;;;;;6285746;28;20127;-59
2022/05/25 03:15:49;;;;;;;80.30;45.08;;;;;;;;;;6287252;28;20411;-59
2022/05/25 03:18:53;;;;;;;77.10;44.25;;;;;;;;;;6287364;28;20499;-59
2022/05/25 03:21:53;;;;;;;81.68;45.58;;;;;;;;;;6288525;28;20110;-59
2022/05/25 03:24:54;;;;;;;83.82;46.67;;;;;;;;;;6285357;28;20131;-59
2022/05/25 03:27:55;;;;;;;83.75;45.10;;;;;;;;;;6288063;28;20055;-59
2022/05/25 03:30:55;;;;;;;81.07;46.75;;;;;;;;;;6284597;28;20059;-59
2022/05/25 03:33:56;;;;;;;79.65;45.80;;;;;;;;;;6284625;28;20048;-58
2022/05/25 03:36:56;;;;;;;76.32;44.17;;;;;;;;;;6285078;28;20045;-60
2022/05/25 03:39:57;;;;;;;74.97;43.50;;;;;;;;;;6289728;28;20052;-58
2022/05/25 03:42:58;;;;;;;71.85;41.13;;;;;;;;;;6288136;28;20406;-60
2022/05/25 03:45:58;;;;;;;71.38;39.03;;;;;;;;;;6292841;28;20114;-59
2022/05/25 03:48:59;;;;;;;69.63;40.67;;;;;;;;;;6301391;28;20143;-58
2022/05/25 03:52:00;;;;;;;71.65;40.60;;;;;;;;;;6291936;28;20131;-60
2022/05/25 03:55:00;;;;;;;69.30;39.58;;;;;;;;;;6300801;28;20160;-58
2022/05/25 03:58:04;;;;;;;68.63;40.42;;;;;;;;;;6290733;28;20080;-59
2022/05/25 04:01:05;;;;;;;72.97;40.45;;;;;;;;;;6292523;28;20048;-58
2022/05/25 04:04:06;;;;;;;68.32;39.28;;;;;;;;;;6289661;28;20499;-59
2022/05/25 04:07:06;;;;;;;72.60;39.55;;;;;;;;;;6293686;28;20499;-59
2022/05/25 04:10:11;;;;;;;68.78;39.35;;;;;;;;;;6292083;28;20047;-58
2022/05/25 04:13:11;;;;;;;69.65;41.08;;;;;;;;;;6291355;28;20123;-60
2022/05/25 04:16:12;;;;;;;65.63;38.70;;;;;;;;;;6295758;28;20047;-59
2022/05/25 04:19:13;;;;;;;66.35;37.40;;;;;;;;;;6291380;28;20060;-59
2022/05/25 04:22:13;;;;;;;64.80;38.50;;;;;;;;;;6289899;28;20056;-59
2022/05/25 04:25:17;;;;;;;64.25;37.58;;;;;;;;;;6301292;28;20123;-59
2022/05/25 04:28:19;;;;;;;66.13;37.65;;;;;;;;;;6306207;28;20080;-58
2022/05/25 04:31:20;;;;;;;61.95;37.17;;;;;;;;;;6291742;28;20525;-59
2022/05/25 04:34:20;;;;;;;63.47;38.80;;;;;;;;;;6290271;28;20041;-59
2022/05/25 04:40:43;;;;;;;65.18;37.85;;;;;;;;;;6292824;28;20052;-59
2022/05/25 04:43:43;;;;;;;61.63;35.95;;;;;;;;;;6287474;28;20051;-59
2022/05/25 04:46:45;;;;;;;63.08;35.90;;;;;;;;;;6292245;28;20582;-59
2022/05/25 04:49:46;;;;;;;58.63;35.20;;;;;;;;;;6287950;28;20053;-59
2022/05/25 04:52:46;;;;;;;66.05;38.58;;;;;;;;;;6289368;28;20162;-60
2022/05/25 04:59:07;;;;;;;77.43;46.22;;;;;;;;;;6287360;28;20524;-60
2022/05/25 05:02:07;;;;;;;87.80;50.00;;;;;;;;;;6292130;28;20048;-59
2022/05/25 05:05:10;;;;;;;88.10;50.38;;;;;;;;;;6288209;28;20059;-60
2022/05/25 05:08:11;;;;;;;91.30;52.13;;;;;;;;;;6289850;28;20040;-59
2022/05/25 05:11:18;;;;;;;83.53;47.10;;;;;;;;;;6291067;28;20090;-59
2022/05/25 05:14:19;;;;;;;74.85;45.03;;;;;;;;;;6293329;28;20127;-59
2022/05/25 05:17:20;;;;;;;83.63;47.65;;;;;;;;;;6292292;28;20396;-57
2022/05/25 05:20:20;;;;;;;79.75;47.10;;;;;;;;;;6291246;28;20452;-60
2022/05/25 05:23:21;;;;;;;76.38;46.08;;;;;;;;;;6293844;28;20135;-59
2022/05/25 05:26:21;;;;;;;94.43;51.15;;;;;;;;;;6289463;28;20452;-59
2022/05/25 05:29:24;;;;;;;100.72;53.83;;;;;;;;;;6294239;28;20561;-59
2022/05/25 05:32:25;;;;;;;104.93;57.28;;;;;;;;;;6291108;28;20277;-59
2022/05/25 05:35:28;;;;;;;97.00;54.20;;;;;;;;;;6289951;28;20086;-56
2022/05/25 05:38:30;;;;;;;95.47;52.75;;;;;;;;;;6290177;28;20046;-58
2022/05/25 05:41:35;;;;;;;85.57;48.47;;;;;;;;;;6289800;28;20064;-58
2022/05/25 05:44:41;;;;;;;95.28;52.78;;;;;;;;;;6289773;28;20052;-57
2022/05/25 05:47:49;;;;;;;96.65;52.25;;;;;;;;;;6290068;28;20079;-59
2022/05/25 05:50:54;;;;;;;93.95;51.67;;;;;;;;;;6290307;28;20127;-58
2022/05/25 05:53:55;;;;;;;90.25;52.03;;;;;;;;;;6290343;28;20059;-58
2022/05/25 05:56:55;;;;;;;88.43;52.03;;;;;;;;;;6289285;28;20507;-58
2022/05/25 05:59:56;;;;;;;97.20;54.83;;;;;;;;;;6292105;28;20040;-56
2022/05/25 06:02:57;;;;;;;98.15;55.78;;;;;;;;;;6291025;28;20125;-59
2022/05/25 06:05:57;;;;;;;103.72;57.33;;;;;;;;;;6285496;28;20151;-58
2022/05/25 06:08:58;;;;;;;103.78;57.85;;;;;;;;;;6277029;28;20066;-57
2022/05/25 06:11:59;;;;;;;96.72;55.05;;;;;;;;;;6286606;28;20060;-56
2022/05/25 06:19:25;;;;;;;101.50;57.47;;;;;;;;;;6277333;28;20043;-57
2022/05/25 06:21:40;;;;;;;95.63;51.20;;;;;;;;;;6282330;28;19923;-58
2022/05/25 06:24:44;;;;;;;95.85;52.35;;;;;;;;;;6280363;28;20052;-59
2022/05/25 06:27:44;;;;;;;100.65;55.30;;;;;;;;;;6279746;28;20055;-58
2022/05/25 06:30:45;;;;;;;102.57;54.75;;;;;;;;;;6280340;28;20036;-60
2022/05/25 06:33:46;;;;;;;103.10;54.50;;;;;;;;;;6297984;28;20055;-59
2022/05/25 06:36:48;;;;;;;96.13;52.08;;;;;;;;;;6283857;28;20052;-55
2022/05/25 06:39:49;;;;;;;96.25;53.55;;;;;;;;;;6282478;28;20578;-60
2022/05/25 06:42:51;;;;;;;96.18;54.13;;;;;;;;;;6283172;28;20072;-58
2022/05/25 06:45:52;;;;;;;;;;;;;;;;;;6286108;28;20052;-60
2022/05/25 06:48:54;;;;;;;99.05;51.33;;;;;;;;;;6281514;28;20289;-59
2022/05/25 06:51:55;;;;;;;96.93;54.17;;;;;;;;;;6292284;28;20639;-61
2022/05/25 06:54:57;;;;;;;96.55;53.35;;;;;;;;;;6286503;28;20056;-57
2022/05/25 06:57:57;;;;;;;95.67;54.10;;;;;;;;;;6290054;28;20070;-60
2022/05/25 07:00:58;;;;;;;79.13;44.88;;;;;;;;;;6281783;28;20052;-58
2022/05/25 07:03:58;;;;;;;70.97;39.15;;;;;;;;;;6281904;28;20053;-54
2022/05/25 07:07:01;;;;;;;64.22;37.58;;;;;;;;;;6285661;28;20044;-60
2022/05/25 07:10:03;;;;;;;47.33;27.50;;;;;;;;;;6280356;28;20059;-59
2022/05/25 07:13:04;;;;;;;44.50;25.40;;;;;;;;;;6285115;28;20114;-58
2022/05/25 07:16:07;;;;;;;32.78;21.42;;;;;;;;;;6288778;28;20468;-58
2022/05/25 07:19:08;;;;;;;29.33;19.50;;;;;;;;;;6292163;28;20075;-60
2022/05/25 07:22:10;;;;;;;30.63;20.05;;;;;;;;;;6289191;28;20041;-59
2022/05/25 07:25:11;;;;;;;28.58;19.00;;;;;;;;;;6300218;28;20677;-60
2022/05/25 07:28:12;;;;;;;31.52;18.90;;;;;;;;;;6286892;28;20101;-60
2022/05/25 07:31:23;;;;;;;32.22;20.85;;;;;;;;;;6286623;28;20076;-59
2022/05/25 07:34:26;;;;;;;28.52;18.80;;;;;;;;;;6299586;28;20090;-59
2022/05/25 07:37:33;;;;;;;28.55;18.63;;;;;;;;;;6298336;28;20050;-58
2022/05/25 07:40:39;;;;;;;23.67;15.07;;;;;;;;;;6285435;28;20127;-58
2022/05/25 07:43:41;;;;;;;29.30;17.00;;;;;;;;;;6289024;28;20139;-59
2022/05/25 07:46:42;;;;;;;23.92;14.27;;;;;;;;;;6286573;28;20051;-60
2022/05/25 07:49:42;;;;;;;28.20;16.00;;;;;;;;;;6285550;28;20359;-59
2022/05/25 07:52:43;;;;;;;25.63;14.40;;;;;;;;;;6290097;28;20044;-59
2022/05/25 07:55:44;;;;;;;22.05;13.95;;;;;;;;;;6293747;28;20078;-59
2022/05/25 07:58:45;;;;;;;21.50;13.40;;;;;;;;;;6293028;28;20052;-58
2022/05/25 08:08:33;;;;;;;22.08;13.55;;;;;;;;;;6298744;28;20044;-57
2022/05/25 08:11:35;;;;;;;20.95;13.95;;;;;;;;;;6285879;28;21981;-56
2022/05/25 08:14:36;;;;;;;23.20;14.48;;;;;;;;;;6289651;28;20139;-58
2022/05/25 08:17:36;;;;;;;22.67;14.83;;;;;;;;;;6294617;28;20044;-54
2022/05/25 08:20:38;;;;;;;26.23;16.77;;;;;;;;;;6285827;28;20097;-59
2022/05/25 08:23:38;;;;;;;25.70;17.17;;;;;;;;;;6287013;28;20564;-58
2022/05/25 08:26:39;;;;;;;25.27;17.17;;;;;;;;;;6291072;28;20143;-60
2022/05/25 08:29:40;;;;;;;23.70;15.93;;;;;;;;;;6293020;28;20094;-59
2022/05/25 08:32:41;;;;;;;22.70;15.02;;;;;;;;;;6298937;28;20048;-59
2022/05/25 08:35:42;;;;;;;20.73;12.23;;;;;;;;;;6304500;28;20036;-57
2022/05/25 08:38:42;;;;;;;23.40;12.45;;;;;;;;;;6301164;28;20140;-59
2022/05/25 08:41:44;;;;;;;17.25;10.05;;;;;;;;;;6301183;28;20052;-59
2022/05/25 08:44:47;;;;;;;20.77;9.75;;;;;;;;;;6304264;28;20060;-58
2022/05/25 08:47:52;;;;;;;14.63;9.20;;;;;;;;;;6305744;28;20051;-57
2022/05/25 08:50:58;;;;;;;15.30;9.05;;;;;;;;;;6302690;28;20151;-54
2022/05/25 08:54:00;;;;;;;17.00;8.70;;;;;;;;;;6304533;28;20068;-58
2022/05/25 08:57:05;;;;;;;13.93;7.43;;;;;;;;;;6306018;28;20075;-57
2022/05/25 09:00:10;;;;;;;17.15;8.10;;;;;;;;;;6303305;28;20082;-58
2022/05/25 09:03:26;;;;;;;15.70;7.95;;;;;;;;;;6303642;28;20051;-57
2022/05/25 09:06:48;;;;;;;18.23;8.93;;;;;;;;;;6304820;28;20086;-57
2022/05/25 09:09:51;;;;;;;14.60;6.57;;;;;;;;;;6302773;28;20480;-59
2022/05/25 09:13:00;;;;;;;14.25;7.35;;;;;;;;;;6302277;28;20052;-55
2022/05/25 09:16:16;;;;;;;15.55;8.13;;;;;;;;;;6300581;28;20175;-58
2022/05/25 09:19:19;;;;;;;13.02;6.35;;;;;;;;;;6302334;28;20539;-58
2022/05/25 09:22:23;;;;;;;11.10;6.13;;;;;;;;;;6285121;28;20089;-59
2022/05/25 09:25:24;;;;;;;13.68;7.28;;;;;;;;;;6293910;28;21158;-58
2022/05/25 09:28:32;;;;;;;16.08;8.63;;;;;;;;;;6284658;28;21193;-57
2022/05/25 09:31:37;;;;;;;16.38;7.95;;;;;;;;;;6281575;28;20163;-59
2022/05/25 09:34:50;;;;;;;14.70;6.85;;;;;;;;;;6284295;28;20813;-61
2022/05/25 09:37:57;;;;;;;12.68;7.18;;;;;;;;;;6283102;28;20376;-58
2022/05/25 09:41:05;;;;;;;13.38;7.30;;;;;;;;;;6278559;28;20182;-56
2022/05/25 09:44:06;;;;;;;16.20;7.68;;;;;;;;;;6281858;28;20151;-63
2022/05/25 09:47:16;;;;;;;13.40;6.97;;;;;;;;;;6287327;28;20076;-58
2022/05/25 09:50:33;;;;;;;13.05;7.85;;;;;;;;;;6285938;28;20515;-59
2022/05/25 09:53:48;;;;;;;10.00;4.93;;;;;;;;;;6289999;28;20087;-58
2022/05/25 09:56:54;;;;;;;11.30;5.05;;;;;;;;;;6289820;28;20519;-58
2022/05/25 10:00:02;;;;;;;9.30;5.18;;;;;;;;;;6282292;28;20174;-59
2022/05/25 10:03:20;;;;;;;11.10;5.00;;;;;;;;;;6281264;28;20131;-59
2022/05/25 10:06:34;;;;;;;9.02;4.15;;;;;;;;;;6283316;28;20114;-58
2022/05/25 10:09:45;;;;;;;8.45;4.00;;;;;;;;;;6284355;28;21426;-58
2022/05/25 10:12:45;;;;;;;10.52;4.25;;;;;;;;;;6280548;28;20078;-57
2022/05/25 10:15:51;;;;;;;10.38;4.78;;;;;;;;;;6285886;28;20462;-56
2022/05/25 10:18:52;;;;;;;11.38;5.85;;;;;;;;;;6281066;28;20482;-55
2022/05/25 10:21:58;;;;;;;12.20;6.45;;;;;;;;;;6282615;28;20051;-58
2022/05/25 10:25:03;;;;;;;11.68;5.90;;;;;;;;;;6283732;28;21182;-58
2022/05/25 10:28:18;;;;;;;14.95;7.38;;;;;;;;;;6291252;28;20086;-58
2022/05/25 10:38:19;;;;;;;14.00;7.93;;;;;;;;;;6283440;28;20048;-59
2022/05/25 10:41:40;;;;;;;13.55;7.30;;;;;;;;;;6290244;28;20083;-56
2022/05/25 10:44:50;;;;;;;14.30;7.80;;;;;;;;;;6284306;28;20040;-57
2022/05/25 10:47:57;;;;;;;16.95;10.63;;;;;;;;;;6283022;28;20989;-59
2022/05/25 10:51:26;;;;;;;21.58;12.23;;;;;;;;;;6288522;28;20064;-56
2022/05/25 10:54:45;;;;;;;21.73;13.07;;;;;;;;;;6288989;28;20077;-58
2022/05/25 10:58:10;;;;;;;25.33;14.10;;;;;;;;;;6295101;28;20870;-59
2022/05/25 11:01:51;;;;;;;19.65;11.23;;;;;;;;;;6292919;28;20059;-57
2022/05/25 11:05:23;;;;;;;13.93;8.00;;;;;;;;;;6298822;28;20144;-56
2022/05/25 11:08:33;;;;;;;13.30;6.77;;;;;;;;;;6293710;28;20166;-58
2022/05/25 11:12:01;;;;;;;11.18;5.82;;;;;;;;;;6292643;28;20160;-58
2022/05/25 11:15:28;;;;;;;12.27;6.88;;;;;;;;;;6290091;28;20044;-56
2022/05/25 11:18:50;;;;;;;8.95;5.03;;;;;;;;;;6284956;28;20151;-59
2022/05/25 11:21:51;;;;;;;;;;;;;;;;;;6292656;28;20057;-58
2022/05/25 11:25:16;;;;;;;11.63;5.45;;;;;;;;;;6284139;28;20435;-59
2022/05/25 11:28:47;;;;;;;10.52;5.70;;;;;;;;;;6284844;28;20040;-59
2022/05/25 11:31:54;;;;;;;13.05;8.13;;;;;;;;;;6294164;28;20076;-58
2022/05/25 11:35:48;;;;;;;17.25;10.82;;;;;;;;;;6303238;28;20495;-58
2022/05/25 11:38:59;;;;;;;15.18;9.32;;;;;;;;;;6285193;28;20241;-57
2022/05/25 11:42:20;;;;;;;19.35;13.10;;;;;;;;;;6301493;28;20048;-58
2022/05/25 11:45:45;;;;;;;16.40;9.50;;;;;;;;;;6304194;28;20570;-54
2022/05/25 11:49:19;;;;;;;15.98;10.95;;;;;;;;;;6306175;28;20404;-58
2022/05/25 11:52:37;;;;;;;16.42;8.30;;;;;;;;;;6299202;28;20102;-55
2022/05/25 11:56:01;;;;;;;12.23;6.20;;;;;;;;;;6300874;28;20966;-59
2022/05/25 11:59:44;;;;;;;10.52;6.25;;;;;;;;;;6304641;28;20077;-58
2022/05/25 12:03:06;;;;;;;10.63;4.95;;;;;;;;;;6304267;28;20056;-58
2022/05/25 12:06:16;;;;;;;9.60;5.15;;;;;;;;;;6302428;28;20092;-57
2022/05/25 12:09:30;;;;;;;10.70;5.03;;;;;;;;;;6295260;28;20044;-58
2022/05/25 12:12:43;;;;;;;9.38;5.13;;;;;;;;;;6299331;28;20198;-55
2022/05/25 12:16:02;;;;;;;10.70;5.50;;;;;;;;;;6296081;28;20066;-59
2022/05/25 12:19:23;;;;;;;12.38;5.88;;;;;;;;;;6296942;28;20076;-57
2022/05/25 12:22:31;;;;;;;11.93;5.22;;;;;;;;;;6298805;28;20051;-59
2022/05/25 12:25:35;;;;;;;10.23;5.20;;;;;;;;;;6300658;28;20186;-57
2022/05/25 12:28:39;;;;;;;9.88;6.10;;;;;;;;;;6296329;28;20936;-59
2022/05/25 12:31:42;;;;;;;11.52;5.85;;;;;;;;;;6294129;28;20476;-57
2022/05/25 12:34:47;;;;;;;10.15;5.63;;;;;;;;;;6301340;28;20051;-56
2022/05/25 12:37:51;;;;;;;10.48;6.20;;;;;;;;;;6301736;28;20612;-57
2022/05/25 12:40:52;;;;;;;10.20;6.05;;;;;;;;;;6300593;28;20602;-57
2022/05/25 12:51:39;;;;;;;10.10;4.53;;;;;;;;;;6300049;28;20071;-57
2022/05/25 12:54:42;;;;;;;9.65;4.53;;;;;;;;;;6301972;28;20558;-59
2022/05/25 12:57:50;;;;;;;7.68;4.25;;;;;;;;;;6297670;28;20464;-58
2022/05/25 13:01:20;;;;;;;9.13;4.13;;;;;;;;;;6296864;28;20082;-58
2022/05/25 13:04:43;;;;;;;8.50;4.72;;;;;;;;;;6291016;28;20190;-56
2022/05/25 13:07:46;;;;;;;8.60;4.40;;;;;;;;;;6301267;28;20495;-55
2022/05/25 13:10:47;;;;;;;8.18;4.38;;;;;;;;;;6297279;28;20044;-59
2022/05/25 13:13:48;;;;;;;6.53;3.17;;;;;;;;;;6299354;28;20140;-58
2022/05/25 13:16:49;;;;;;;9.53;5.20;;;;;;;;;;6301265;28;20040;-56
2022/05/25 13:19:49;;;;;;;7.00;4.07;;;;;;;;;;6285066;28;20170;-57
2022/05/25 13:22:50;;;;;;;8.30;5.28;;;;;;;;;;6302557;28;20048;-58
2022/05/25 13:26:01;;;;;;;6.57;3.88;;;;;;;;;;6301565;28;20047;-57
2022/05/25 13:29:24;;;;;;;7.57;4.50;;;;;;;;;;6297220;28;20059;-55
2022/05/25 13:32:49;;;;;;;8.75;4.50;;;;;;;;;;6294596;28;20059;-59
2022/05/25 13:35:54;;;;;;;8.57;5.25;;;;;;;;;;6295232;28;20074;-56
2022/05/25 13:38:56;;;;;;;10.63;5.90;;;;;;;;;;6296339;28;20416;-56
2022/05/25 13:42:10;;;;;;;12.18;5.78;;;;;;;;;;6296657;28;20040;-59
2022/05/25 13:45:18;;;;;;;7.95;5.18;;;;;;;;;;6298293;28;20143;-58
2022/05/25 13:48:22;;;;;;;10.70;5.45;;;;;;;;;;6296349;28;20325;-58
2022/05/25 13:51:24;;;;;;;12.93;6.55;;;;;;;;;;6298295;28;20043;-58
2022/05/25 13:54:32;;;;;;;9.43;5.90;;;;;;;;;;6300292;28;20113;-57
2022/05/25 13:57:51;;;;;;;8.57;5.10;;;;;;;;;;6287050;28;20056;-59
2022/05/25 14:00:52;;;;;;;11.10;5.20;;;;;;;;;;6285524;28;20079;-58
2022/05/25 14:03:59;;;;;;;8.07;4.93;;;;;;;;;;6287384;28;20060;-57
2022/05/25 14:07:01;;;;;;;8.65;5.10;;;;;;;;;;6286741;28;20154;-56
2022/05/25 14:13:27;;;;;;;10.43;4.90;;;;;;;;;;6286267;28;20800;-58
2022/05/25 14:16:29;;;;;;;13.73;6.55;;;;;;;;;;6292880;28;20143;-58
2022/05/25 14:19:31;;;;;;;;;;;;;;;;;;6287808;28;20822;-58
2022/05/25 14:22:33;;;;;;;14.90;7.32;;;;;;;;;;6290014;28;19931;-58
2022/05/25 14:25:34;;;;;;;13.05;6.88;;;;;;;;;;6290224;28;20187;-59
2022/05/25 14:28:38;;;;;;;15.70;7.50;;;;;;;;;;6276669;28;20055;-60
2022/05/25 14:31:47;;;;;;;13.95;7.13;;;;;;;;;;6283498;28;20067;-58
2022/05/25 14:34:49;;;;;;;13.15;6.45;;;;;;;;;;6285331;28;20506;-57
2022/05/25 14:37:50;;;;;;;12.32;6.00;;;;;;;;;;6288458;28;20095;-58
2022/05/25 14:40:54;;;;;;;8.50;4.70;;;;;;;;;;6286269;28;20833;-55
2022/05/25 14:43:56;;;;;;;8.82;4.78;;;;;;;;;;6285442;28;20055;-57
2022/05/25 14:46:56;;;;;;;9.88;5.25;;;;;;;;;;6290574;28;20856;-59
2022/05/25 14:50:30;;;;;;;8.70;4.60;;;;;;;;;;6281774;28;20056;-59
2022/05/25 14:53:33;;;;;;;8.57;4.43;;;;;;;;;;6271492;28;20055;-58
2022/05/25 14:56:34;;;;;;;9.13;4.72;;;;;;;;;;6287068;28;20048;-59
2022/05/25 14:59:43;;;;;;;10.38;4.47;;;;;;;;;;6279471;28;20435;-58
2022/05/25 15:02:58;;;;;;;9.15;5.00;;;;;;;;;;6280058;28;20114;-59
2022/05/25 15:06:01;;;;;;;10.38;5.03;;;;;;;;;;6285655;28;20048;-60
2022/05/25 15:09:06;;;;;;;9.77;4.85;;;;;;;;;;6281325;28;20052;-59
2022/05/25 15:12:24;;;;;;;10.65;4.90;;;;;;;;;;6283837;28;20052;-57
2022/05/25 15:18:49;;;;;;;9.07;5.72;;;;;;;;;;6282024;28;20151;-56
2022/05/25 15:21:51;;;;;;;10.93;5.95;;;;;;;;;;6282693;28;20056;-57
2022/05/25 15:25:00;;;;;;;12.30;7.18;;;;;;;;;;6293261;28;20146;-59
2022/05/25 15:28:14;;;;;;;11.73;7.60;;;;;;;;;;6298171;28;20052;-59
2022/05/25 15:31:17;;;;;;;13.85;6.82;;;;;;;;;;6297023;28;20041;-60
2022/05/25 15:34:18;;;;;;;12.15;6.45;;;;;;;;;;6295186;28;20442;-54
2022/05/25 15:37:24;;;;;;;10.57;6.85;;;;;;;;;;6301980;28;20044;-60
2022/05/25 15:40:25;;;;;;;14.93;8.00;;;;;;;;;;6302687;28;20154;-57
2022/05/25 15:43:26;;;;;;;15.35;9.13;;;;;;;;;;6305956;28;20583;-57
2022/05/25 15:46:28;;;;;;;;;;;;;;;;;;6307092;28;20044;-60
2022/05/25 15:49:28;;;;;;;15.13;8.88;;;;;;;;;;6301676;28;20434;-55
2022/05/25 15:52:29;;;;;;;13.88;8.38;;;;;;;;;;6305670;28;20575;-60
2022/05/25 15:55:30;;;;;;;13.27;8.00;;;;;;;;;;6306193;28;20126;-59
2022/05/25 15:58:32;;;;;;;13.52;7.88;;;;;;;;;;6300656;28;20079;-58
2022/05/25 16:01:35;;;;;;;14.57;7.80;;;;;;;;;;6304485;28;20059;-55
2022/05/25 16:04:39;;;;;;;14.45;8.23;;;;;;;;;;6304197;28;20072;-57
2022/05/25 16:11:00;;;;;;;16.98;9.50;;;;;;;;;;6303841;28;20105;-57
2022/05/25 16:14:03;;;;;;;15.95;9.40;;;;;;;;;;6303213;28;20063;-58
2022/05/25 16:17:04;;;;;;;14.15;9.15;;;;;;;;;;6305296;28;20162;-59
2022/05/25 16:20:05;;;;;;;16.77;10.02;;;;;;;;;;6301347;28;22599;-59
2022/05/25 16:23:06;;;;;;;16.65;9.98;;;;;;;;;;6303879;28;20056;-59
2022/05/25 16:26:07;;;;;;;19.38;10.18;;;;;;;;;;6305533;28;20158;-58
2022/05/25 16:29:08;;;;;;;16.25;9.80;;;;;;;;;;6302073;28;20052;-60
2022/05/25 16:32:13;;;;;;;17.58;10.10;;;;;;;;;;6303233;28;20040;-58
2022/05/25 16:35:14;;;;;;;19.10;10.98;;;;;;;;;;6306524;28;20047;-59
2022/05/25 16:38:15;;;;;;;22.90;12.43;;;;;;;;;;6300859;28;20102;-67
2022/05/25 16:41:17;;;;;;;19.83;10.77;;;;;;;;;;6302168;28;20075;-58
2022/05/25 16:44:19;;;;;;;;;;;;;;;;;;6301653;28;20036;-59
2022/05/25 16:47:20;;;;;;;16.10;10.82;;;;;;;;;;6301747;28;19927;-57
2022/05/25 16:50:21;;;;;;;21.00;10.77;;;;;;;;;;6299133;28;20598;-60
2022/05/25 16:53:23;;;;;;;18.27;10.95;;;;;;;;;;6302749;28;20044;-60
2022/05/25 16:56:24;;;;;;;19.13;10.57;;;;;;;;;;6303156;28;20124;-60
2022/05/25 16:59:26;;;;;;;21.27;11.50;;;;;;;;;;6302809;28;20135;-60
2022/05/25 17:02:27;;;;;;;17.92;11.25;;;;;;;;;;6300245;28;20726;-61
2022/05/25 17:05:28;;;;;;;23.75;12.48;;;;;;;;;;6304634;28;20139;-60
2022/05/25 17:08:31;;;;;;;20.80;12.05;;;;;;;;;;6301888;28;20048;-56
2022/05/25 17:11:31;;;;;;;20.17;12.30;;;;;;;;;;6302266;28;20115;-55
2022/05/25 17:14:32;;;;;;;24.95;12.70;;;;;;;;;;6304568;28;20048;-59
2022/05/25 17:17:33;;;;;;;21.35;12.05;;;;;;;;;;6300415;28;20056;-60
2022/05/25 17:20:34;;;;;;;21.93;10.87;;;;;;;;;;6297847;28;20050;-60
2022/05/25 17:23:36;;;;;;;21.77;11.70;;;;;;;;;;6299089;28;20784;-59
2022/05/25 17:26:37;;;;;;;21.65;11.35;;;;;;;;;;6297223;28;20055;-63
2022/05/25 17:29:37;;;;;;;18.13;10.47;;;;;;;;;;6299985;28;20118;-60
2022/05/25 17:32:38;;;;;;;17.85;11.15;;;;;;;;;;6299095;28;20044;-58
2022/05/25 17:42:17;;;;;;;23.35;13.23;;;;;;;;;;6305888;28;20066;-59
2022/05/25 17:45:17;;;;;;;21.98;13.65;;;;;;;;;;6312711;28;20414;-57
2022/05/25 17:48:19;;;;;;;24.70;14.10;;;;;;;;;;6307935;28;20093;-58
2022/05/25 17:51:19;;;;;;;21.70;12.60;;;;;;;;;;6311227;28;20039;-58
2022/05/25 17:54:20;;;;;;;23.27;12.98;;;;;;;;;;6307723;28;20044;-55
2022/05/25 17:57:22;;;;;;;22.23;14.00;;;;;;;;;;6308441;28;20134;-57
2022/05/25 18:00:23;;;;;;;23.95;13.98;;;;;;;;;;6309834;28;20067;-56
2022/05/25 18:03:24;;;;;;;21.10;12.65;;;;;;;;;;6306066;28;20790;-54
2022/05/25 18:06:24;;;;;;;25.98;13.68;;;;;;;;;;6307289;28;20051;-56
2022/05/25 18:09:25;;;;;;;22.65;13.00;;;;;;;;;;6307588;28;20167;-56
2022/05/25 18:12:26;;;;;;;24.77;13.77;;;;;;;;;;6303103;28;20056;-59
2022/05/25 18:15:29;;;;;;;20.05;12.73;;;;;;;;;;6313435;28;20050;-60
2022/05/25 18:18:32;;;;;;;21.25;12.75;;;;;;;;;;6305197;28;20147;-59
2022/05/25 18:21:33;;;;;;;22.70;13.02;;;;;;;;;;6305357;28;20048;-56
2022/05/25 18:24:34;;;;;;;21.20;13.07;;;;;;;;;;6304147;28;20090;-59
2022/05/25 18:27:35;;;;;;;21.33;13.27;;;;;;;;;;6310912;28;20203;-61
2022/05/25 18:30:35;;;;;;;21.77;12.82;;;;;;;;;;6303777;28;20414;-54
2022/05/25 18:33:36;;;;;;;26.63;13.98;;;;;;;;;;6308638;28;20112;-55
2022/05/25 18:36:39;;;;;;;22.92;13.38;;;;;;;;;;6306035;28;20078;-56
2022/05/25 18:39:40;;;;;;;22.80;13.05;;;;;;;;;;6307485;28;20043;-59
2022/05/25 18:42:41;;;;;;;23.42;13.48;;;;;;;;;;6310177;28;20051;-59
2022/05/25 18:45:42;;;;;;;20.92;13.13;;;;;;;;;;6312646;28;20039;-59
2022/05/25 18:48:43;;;;;;;23.00;13.80;;;;;;;;;;6305941;28;20055;-59
2022/05/25 18:51:45;;;;;;;23.65;12.15;;;;;;;;;;6306047;28;20494;-59
2022/05/25 18:54:46;;;;;;;31.10;21.55;;;;;;;;;;6303029;28;20129;-58
2022/05/25 18:57:47;;;;;;;23.05;14.68;;;;;;;;;;6302584;28;20103;-59
2022/05/25 19:00:48;;;;;;;24.48;13.45;;;;;;;;;;6301705;28;20079;-55
2022/05/25 19:03:49;;;;;;;24.35;13.63;;;;;;;;;;6304908;28;20498;-58